sensor_id;sensor_type;location;lat;lon;timestamp;P1;durP1;ratioP1;P2;durP2;ratioP2
74245;SDS011;62601;51.044;13.788;2023-07-13T00:01:56;3.00;;;2.20;;
74245;SDS011;62601;51.044;13.788;2023-07-13T00:04:16;2.60;;;2.40;;
74245;SDS011;62601;51.044;13.788;2023-07-13T00:06:37;2.73;;;2.53;;
74245;SDS011;62601;51.044;13.788;2023-07-13T00:08:57;2.57;;;2.37;;
74245;SDS011;62601;51.044;13.788;2023-07-13T00:11:17;2.70;;;2.50;;
74245;SDS011;62601;51.044;13.788;2023-07-13T00:13:37;3.90;;;2.20;;
74245;SDS011;62601;51.044;13.788;2023-07-13T00:15:57;3.20;;;2.80;;
74245;SDS011;62601;51.044;13.788;2023-07-13T00:18:18;3.57;;;2.70;;
74245;SDS011;62601;51.044;13.788;2023-07-13T00:20:38;3.03;;;2.47;;
74245;SDS011;62601;51.044;13.788;2023-07-13T00:22:58;2.50;;;2.30;;
74245;SDS011;62601;51.044;13.788;2023-07-13T00:25:18;2.30;;;2.20;;
74245;SDS011;62601;51.044;13.788;2023-07-13T00:27:38;2.90;;;2.27;;
74245;SDS011;62601;51.044;13.788;2023-07-13T00:29:58;2.27;;;2.17;;
74245;SDS011;62601;51.044;13.788;2023-07-13T00:32:19;2.63;;;2.40;;
74245;SDS011;62601;51.044;13.788;2023-07-13T00:34:39;2.90;;;2.53;;
74245;SDS011;62601;51.044;13.788;2023-07-13T00:36:59;3.93;;;2.40;;
74245;SDS011;62601;51.044;13.788;2023-07-13T00:39:19;2.30;;;2.10;;
74245;SDS011;62601;51.044;13.788;2023-07-13T00:41:39;2.67;;;2.47;;
74245;SDS011;62601;51.044;13.788;2023-07-13T00:43:59;2.60;;;2.40;;
74245;SDS011;62601;51.044;13.788;2023-07-13T00:46:21;4.10;;;2.57;;
74245;SDS011;62601;51.044;13.788;2023-07-13T00:48:41;2.00;;;1.87;;
74245;SDS011;62601;51.044;13.788;2023-07-13T00:51:03;2.70;;;2.50;;
74245;SDS011;62601;51.044;13.788;2023-07-13T00:53:24;2.73;;;2.50;;
74245;SDS011;62601;51.044;13.788;2023-07-13T00:55:45;3.20;;;2.90;;
74245;SDS011;62601;51.044;13.788;2023-07-13T00:58:05;2.97;;;2.50;;
74245;SDS011;62601;51.044;13.788;2023-07-13T01:00:25;2.90;;;2.70;;
74245;SDS011;62601;51.044;13.788;2023-07-13T01:02:47;3.00;;;2.77;;
74245;SDS011;62601;51.044;13.788;2023-07-13T01:05:11;4.13;;;2.67;;
74245;SDS011;62601;51.044;13.788;2023-07-13T01:07:32;3.17;;;2.60;;
74245;SDS011;62601;51.044;13.788;2023-07-13T01:09:52;2.70;;;2.50;;
74245;SDS011;62601;51.044;13.788;2023-07-13T01:12:12;3.20;;;2.53;;
74245;SDS011;62601;51.044;13.788;2023-07-13T01:14:32;3.53;;;3.23;;
74245;SDS011;62601;51.044;13.788;2023-07-13T01:16:52;3.47;;;3.17;;
74245;SDS011;62601;51.044;13.788;2023-07-13T01:19:27;3.50;;;3.00;;
74245;SDS011;62601;51.044;13.788;2023-07-13T01:21:51;2.73;;;2.50;;
74245;SDS011;62601;51.044;13.788;2023-07-13T01:24:12;5.97;;;3.23;;
74245;SDS011;62601;51.044;13.788;2023-07-13T01:26:32;2.90;;;2.70;;
74245;SDS011;62601;51.044;13.788;2023-07-13T01:28:52;3.70;;;3.23;;
74245;SDS011;62601;51.044;13.788;2023-07-13T01:31:12;3.30;;;3.10;;
74245;SDS011;62601;51.044;13.788;2023-07-13T01:33:32;2.83;;;2.63;;
74245;SDS011;62601;51.044;13.788;2023-07-13T01:35:52;4.73;;;3.00;;
74245;SDS011;62601;51.044;13.788;2023-07-13T01:38:16;4.70;;;3.53;;
74245;SDS011;62601;51.044;13.788;2023-07-13T01:40:36;3.13;;;2.80;;
74245;SDS011;62601;51.044;13.788;2023-07-13T01:42:57;3.83;;;3.50;;
74245;SDS011;62601;51.044;13.788;2023-07-13T01:45:18;3.40;;;3.10;;
74245;SDS011;62601;51.044;13.788;2023-07-13T01:47:38;3.30;;;3.00;;
74245;SDS011;62601;51.044;13.788;2023-07-13T01:49:58;3.53;;;3.20;;
74245;SDS011;62601;51.044;13.788;2023-07-13T01:52:18;4.00;;;3.67;;
74245;SDS011;62601;51.044;13.788;2023-07-13T01:54:38;3.90;;;3.60;;
74245;SDS011;62601;51.044;13.788;2023-07-13T01:56:58;3.97;;;3.67;;
74245;SDS011;62601;51.044;13.788;2023-07-13T01:59:18;4.93;;;3.50;;
74245;SDS011;62601;51.044;13.788;2023-07-13T02:01:38;3.20;;;2.90;;
74245;SDS011;62601;51.044;13.788;2023-07-13T02:03:58;4.40;;;3.40;;
74245;SDS011;62601;51.044;13.788;2023-07-13T02:06:19;4.27;;;3.20;;
74245;SDS011;62601;51.044;13.788;2023-07-13T02:08:39;5.67;;;3.10;;
74245;SDS011;62601;51.044;13.788;2023-07-13T02:11:00;3.83;;;3.27;;
74245;SDS011;62601;51.044;13.788;2023-07-13T02:13:20;3.47;;;3.20;;
74245;SDS011;62601;51.044;13.788;2023-07-13T02:15:40;5.10;;;3.70;;
74245;SDS011;62601;51.044;13.788;2023-07-13T02:18:00;3.87;;;3.17;;
74245;SDS011;62601;51.044;13.788;2023-07-13T02:20:20;3.63;;;3.43;;
74245;SDS011;62601;51.044;13.788;2023-07-13T02:22:40;3.77;;;3.40;;
74245;SDS011;62601;51.044;13.788;2023-07-13T02:25:01;4.00;;;3.60;;
74245;SDS011;62601;51.044;13.788;2023-07-13T02:27:21;4.20;;;3.80;;
74245;SDS011;62601;51.044;13.788;2023-07-13T02:29:41;3.93;;;3.50;;
74245;SDS011;62601;51.044;13.788;2023-07-13T02:32:01;13.10;;;4.20;;
74245;SDS011;62601;51.044;13.788;2023-07-13T02:34:21;3.77;;;3.47;;
74245;SDS011;62601;51.044;13.788;2023-07-13T02:36:41;5.10;;;4.03;;
74245;SDS011;62601;51.044;13.788;2023-07-13T02:39:02;4.10;;;3.80;;
74245;SDS011;62601;51.044;13.788;2023-07-13T02:41:22;4.27;;;3.90;;
74245;SDS011;62601;51.044;13.788;2023-07-13T02:43:42;4.43;;;3.97;;
74245;SDS011;62601;51.044;13.788;2023-07-13T02:46:03;4.50;;;4.10;;
74245;SDS011;62601;51.044;13.788;2023-07-13T02:48:23;4.23;;;3.70;;
74245;SDS011;62601;51.044;13.788;2023-07-13T02:50:44;4.53;;;4.23;;
74245;SDS011;62601;51.044;13.788;2023-07-13T02:53:04;4.83;;;4.03;;
74245;SDS011;62601;51.044;13.788;2023-07-13T02:55:24;5.10;;;4.00;;
74245;SDS011;62601;51.044;13.788;2023-07-13T02:57:44;4.70;;;4.30;;
74245;SDS011;62601;51.044;13.788;2023-07-13T03:00:04;5.17;;;4.00;;
74245;SDS011;62601;51.044;13.788;2023-07-13T03:02:25;4.70;;;4.20;;
74245;SDS011;62601;51.044;13.788;2023-07-13T03:04:45;4.30;;;4.00;;
74245;SDS011;62601;51.044;13.788;2023-07-13T03:07:05;6.40;;;4.17;;
74245;SDS011;62601;51.044;13.788;2023-07-13T03:09:25;4.47;;;4.07;;
74245;SDS011;62601;51.044;13.788;2023-07-13T03:11:45;5.77;;;4.30;;
74245;SDS011;62601;51.044;13.788;2023-07-13T03:14:05;4.67;;;3.80;;
74245;SDS011;62601;51.044;13.788;2023-07-13T03:16:25;5.20;;;4.70;;
74245;SDS011;62601;51.044;13.788;2023-07-13T03:18:46;4.70;;;4.20;;
74245;SDS011;62601;51.044;13.788;2023-07-13T03:21:06;5.77;;;3.90;;
74245;SDS011;62601;51.044;13.788;2023-07-13T03:23:26;5.37;;;3.90;;
74245;SDS011;62601;51.044;13.788;2023-07-13T03:25:46;5.00;;;4.60;;
74245;SDS011;62601;51.044;13.788;2023-07-13T03:28:07;6.00;;;4.30;;
74245;SDS011;62601;51.044;13.788;2023-07-13T03:30:27;5.33;;;4.13;;
74245;SDS011;62601;51.044;13.788;2023-07-13T03:32:47;4.27;;;3.90;;
74245;SDS011;62601;51.044;13.788;2023-07-13T03:35:08;4.50;;;4.10;;
74245;SDS011;62601;51.044;13.788;2023-07-13T03:37:28;4.93;;;4.53;;
74245;SDS011;62601;51.044;13.788;2023-07-13T03:39:48;4.13;;;3.73;;
74245;SDS011;62601;51.044;13.788;2023-07-13T03:42:08;4.80;;;4.03;;
74245;SDS011;62601;51.044;13.788;2023-07-13T03:44:28;4.77;;;4.23;;
74245;SDS011;62601;51.044;13.788;2023-07-13T03:46:49;4.87;;;4.47;;
74245;SDS011;62601;51.044;13.788;2023-07-13T03:49:09;4.90;;;4.47;;
74245;SDS011;62601;51.044;13.788;2023-07-13T03:51:29;4.77;;;4.37;;
74245;SDS011;62601;51.044;13.788;2023-07-13T03:53:49;5.53;;;4.73;;
74245;SDS011;62601;51.044;13.788;2023-07-13T03:56:09;5.90;;;4.93;;
74245;SDS011;62601;51.044;13.788;2023-07-13T03:58:31;5.23;;;4.73;;
74245;SDS011;62601;51.044;13.788;2023-07-13T04:00:51;5.00;;;4.50;;
74245;SDS011;62601;51.044;13.788;2023-07-13T04:03:12;4.50;;;4.10;;
74245;SDS011;62601;51.044;13.788;2023-07-13T04:05:32;4.47;;;4.07;;
74245;SDS011;62601;51.044;13.788;2023-07-13T04:07:52;7.37;;;4.80;;
74245;SDS011;62601;51.044;13.788;2023-07-13T04:10:12;5.03;;;4.60;;
74245;SDS011;62601;51.044;13.788;2023-07-13T04:12:32;5.13;;;4.37;;
74245;SDS011;62601;51.044;13.788;2023-07-13T04:14:52;6.27;;;4.83;;
74245;SDS011;62601;51.044;13.788;2023-07-13T04:17:12;4.93;;;4.43;;
74245;SDS011;62601;51.044;13.788;2023-07-13T04:19:32;4.57;;;4.17;;
74245;SDS011;62601;51.044;13.788;2023-07-13T04:21:52;5.50;;;4.77;;
74245;SDS011;62601;51.044;13.788;2023-07-13T04:24:12;11.27;;;4.80;;
74245;SDS011;62601;51.044;13.788;2023-07-13T04:26:33;5.30;;;4.00;;
74245;SDS011;62601;51.044;13.788;2023-07-13T04:28:53;5.50;;;4.50;;
74245;SDS011;62601;51.044;13.788;2023-07-13T04:31:13;5.63;;;4.30;;
74245;SDS011;62601;51.044;13.788;2023-07-13T04:33:34;7.17;;;4.80;;
74245;SDS011;62601;51.044;13.788;2023-07-13T04:35:54;4.23;;;3.83;;
74245;SDS011;62601;51.044;13.788;2023-07-13T04:38:14;5.50;;;4.10;;
74245;SDS011;62601;51.044;13.788;2023-07-13T04:40:35;5.27;;;4.67;;
74245;SDS011;62601;51.044;13.788;2023-07-13T04:42:55;4.87;;;4.40;;
74245;SDS011;62601;51.044;13.788;2023-07-13T04:45:15;4.80;;;4.40;;
74245;SDS011;62601;51.044;13.788;2023-07-13T04:47:35;6.13;;;4.13;;
74245;SDS011;62601;51.044;13.788;2023-07-13T04:49:55;6.10;;;5.53;;
74245;SDS011;62601;51.044;13.788;2023-07-13T04:52:15;6.67;;;5.60;;
74245;SDS011;62601;51.044;13.788;2023-07-13T04:54:35;5.73;;;4.70;;
74245;SDS011;62601;51.044;13.788;2023-07-13T04:56:55;5.93;;;5.33;;
74245;SDS011;62601;51.044;13.788;2023-07-13T04:59:15;4.93;;;4.47;;
74245;SDS011;62601;51.044;13.788;2023-07-13T05:01:35;6.40;;;5.20;;
74245;SDS011;62601;51.044;13.788;2023-07-13T05:03:55;10.57;;;6.20;;
74245;SDS011;62601;51.044;13.788;2023-07-13T05:06:16;5.20;;;4.20;;
74245;SDS011;62601;51.044;13.788;2023-07-13T05:08:36;13.23;;;6.33;;
74245;SDS011;62601;51.044;13.788;2023-07-13T05:10:56;12.70;;;5.43;;
74245;SDS011;62601;51.044;13.788;2023-07-13T05:13:16;5.40;;;4.60;;
74245;SDS011;62601;51.044;13.788;2023-07-13T05:15:36;7.00;;;4.80;;
74245;SDS011;62601;51.044;13.788;2023-07-13T05:17:56;5.37;;;4.60;;
74245;SDS011;62601;51.044;13.788;2023-07-13T05:20:17;6.33;;;4.47;;
74245;SDS011;62601;51.044;13.788;2023-07-13T05:22:37;5.17;;;4.77;;
74245;SDS011;62601;51.044;13.788;2023-07-13T05:24:57;5.50;;;4.90;;
74245;SDS011;62601;51.044;13.788;2023-07-13T05:27:17;4.47;;;4.07;;
74245;SDS011;62601;51.044;13.788;2023-07-13T05:29:38;5.83;;;4.93;;
74245;SDS011;62601;51.044;13.788;2023-07-13T05:31:58;5.10;;;4.67;;
74245;SDS011;62601;51.044;13.788;2023-07-13T05:34:18;4.80;;;4.40;;
74245;SDS011;62601;51.044;13.788;2023-07-13T05:36:38;5.40;;;4.80;;
74245;SDS011;62601;51.044;13.788;2023-07-13T05:38:58;4.23;;;3.93;;
74245;SDS011;62601;51.044;13.788;2023-07-13T05:41:18;5.20;;;4.70;;
74245;SDS011;62601;51.044;13.788;2023-07-13T05:43:38;5.70;;;4.47;;
74245;SDS011;62601;51.044;13.788;2023-07-13T05:45:58;6.13;;;4.90;;
74245;SDS011;62601;51.044;13.788;2023-07-13T05:48:18;4.77;;;4.27;;
74245;SDS011;62601;51.044;13.788;2023-07-13T05:50:38;4.80;;;4.40;;
74245;SDS011;62601;51.044;13.788;2023-07-13T05:52:58;5.57;;;4.50;;
74245;SDS011;62601;51.044;13.788;2023-07-13T05:55:19;5.50;;;4.73;;
74245;SDS011;62601;51.044;13.788;2023-07-13T05:57:39;6.27;;;5.67;;
74245;SDS011;62601;51.044;13.788;2023-07-13T05:59:59;7.07;;;4.60;;
74245;SDS011;62601;51.044;13.788;2023-07-13T06:02:19;5.07;;;4.67;;
74245;SDS011;62601;51.044;13.788;2023-07-13T06:04:39;6.47;;;4.90;;
74245;SDS011;62601;51.044;13.788;2023-07-13T06:07:00;5.30;;;4.80;;
74245;SDS011;62601;51.044;13.788;2023-07-13T06:09:20;10.27;;;5.50;;
74245;SDS011;62601;51.044;13.788;2023-07-13T06:11:40;6.73;;;5.07;;
74245;SDS011;62601;51.044;13.788;2023-07-13T06:14:00;4.80;;;4.40;;
74245;SDS011;62601;51.044;13.788;2023-07-13T06:16:20;7.97;;;5.47;;
74245;SDS011;62601;51.044;13.788;2023-07-13T06:18:40;7.30;;;5.00;;
74245;SDS011;62601;51.044;13.788;2023-07-13T06:21:05;6.00;;;5.40;;
74245;SDS011;62601;51.044;13.788;2023-07-13T06:23:25;10.70;;;4.47;;
74245;SDS011;62601;51.044;13.788;2023-07-13T06:25:45;12.50;;;5.10;;
74245;SDS011;62601;51.044;13.788;2023-07-13T06:28:05;5.47;;;5.07;;
74245;SDS011;62601;51.044;13.788;2023-07-13T06:30:25;5.17;;;4.70;;
74245;SDS011;62601;51.044;13.788;2023-07-13T06:32:46;5.10;;;4.60;;
74245;SDS011;62601;51.044;13.788;2023-07-13T06:35:06;7.83;;;5.10;;
74245;SDS011;62601;51.044;13.788;2023-07-13T06:37:26;4.90;;;4.50;;
74245;SDS011;62601;51.044;13.788;2023-07-13T06:39:46;5.03;;;4.73;;
74245;SDS011;62601;51.044;13.788;2023-07-13T06:42:06;5.37;;;4.87;;
74245;SDS011;62601;51.044;13.788;2023-07-13T06:44:26;5.13;;;4.37;;
74245;SDS011;62601;51.044;13.788;2023-07-13T06:46:46;5.00;;;4.50;;
74245;SDS011;62601;51.044;13.788;2023-07-13T06:49:08;5.27;;;4.77;;
74245;SDS011;62601;51.044;13.788;2023-07-13T06:51:28;5.97;;;3.50;;
74245;SDS011;62601;51.044;13.788;2023-07-13T06:53:48;6.97;;;4.10;;
74245;SDS011;62601;51.044;13.788;2023-07-13T06:56:08;6.43;;;3.63;;
74245;SDS011;62601;51.044;13.788;2023-07-13T06:58:28;4.03;;;3.60;;
74245;SDS011;62601;51.044;13.788;2023-07-13T07:00:50;4.83;;;4.03;;
74245;SDS011;62601;51.044;13.788;2023-07-13T07:03:10;6.57;;;4.13;;
74245;SDS011;62601;51.044;13.788;2023-07-13T07:05:30;4.87;;;3.63;;
74245;SDS011;62601;51.044;13.788;2023-07-13T07:07:51;4.50;;;3.57;;
74245;SDS011;62601;51.044;13.788;2023-07-13T07:10:11;8.20;;;3.63;;
74245;SDS011;62601;51.044;13.788;2023-07-13T07:12:31;3.80;;;3.37;;
74245;SDS011;62601;51.044;13.788;2023-07-13T07:14:51;3.50;;;3.17;;
74245;SDS011;62601;51.044;13.788;2023-07-13T07:17:11;4.97;;;3.47;;
74245;SDS011;62601;51.044;13.788;2023-07-13T07:19:31;3.57;;;2.80;;
74245;SDS011;62601;51.044;13.788;2023-07-13T07:21:51;11.17;;;3.97;;
74245;SDS011;62601;51.044;13.788;2023-07-13T07:24:11;10.10;;;3.23;;
74245;SDS011;62601;51.044;13.788;2023-07-13T07:26:31;4.87;;;3.50;;
74245;SDS011;62601;51.044;13.788;2023-07-13T07:28:51;3.90;;;3.50;;
74245;SDS011;62601;51.044;13.788;2023-07-13T07:31:12;3.90;;;3.47;;
74245;SDS011;62601;51.044;13.788;2023-07-13T07:33:32;4.10;;;3.30;;
74245;SDS011;62601;51.044;13.788;2023-07-13T07:35:52;3.90;;;3.47;;
74245;SDS011;62601;51.044;13.788;2023-07-13T07:38:13;3.30;;;3.10;;
74245;SDS011;62601;51.044;13.788;2023-07-13T07:40:35;4.50;;;3.40;;
74245;SDS011;62601;51.044;13.788;2023-07-13T07:42:56;4.87;;;3.30;;
74245;SDS011;62601;51.044;13.788;2023-07-13T07:45:16;4.53;;;3.10;;
74245;SDS011;62601;51.044;13.788;2023-07-13T07:47:36;6.03;;;4.20;;
74245;SDS011;62601;51.044;13.788;2023-07-13T07:49:56;4.93;;;3.30;;
74245;SDS011;62601;51.044;13.788;2023-07-13T07:52:16;5.20;;;3.30;;
74245;SDS011;62601;51.044;13.788;2023-07-13T07:54:36;3.07;;;2.87;;
74245;SDS011;62601;51.044;13.788;2023-07-13T07:56:59;2.93;;;2.73;;
74245;SDS011;62601;51.044;13.788;2023-07-13T07:59:19;3.10;;;2.67;;
74245;SDS011;62601;51.044;13.788;2023-07-13T08:01:40;4.60;;;2.50;;
74245;SDS011;62601;51.044;13.788;2023-07-13T08:04:00;4.07;;;2.80;;
74245;SDS011;62601;51.044;13.788;2023-07-13T08:06:20;5.73;;;2.67;;
74245;SDS011;62601;51.044;13.788;2023-07-13T08:08:40;2.50;;;2.30;;
74245;SDS011;62601;51.044;13.788;2023-07-13T08:11:04;4.17;;;2.60;;
74245;SDS011;62601;51.044;13.788;2023-07-13T08:13:24;3.10;;;2.53;;
74245;SDS011;62601;51.044;13.788;2023-07-13T08:15:45;3.73;;;2.60;;
74245;SDS011;62601;51.044;13.788;2023-07-13T08:18:06;5.43;;;2.50;;
74245;SDS011;62601;51.044;13.788;2023-07-13T08:20:26;14.77;;;2.87;;
74245;SDS011;62601;51.044;13.788;2023-07-13T08:22:46;5.63;;;2.57;;
74245;SDS011;62601;51.044;13.788;2023-07-13T08:25:06;3.37;;;2.90;;
74245;SDS011;62601;51.044;13.788;2023-07-13T08:27:27;24.63;;;13.57;;
74245;SDS011;62601;51.044;13.788;2023-07-13T08:29:48;2.47;;;2.27;;
74245;SDS011;62601;51.044;13.788;2023-07-13T08:32:08;7.77;;;5.47;;
74245;SDS011;62601;51.044;13.788;2023-07-13T08:34:28;3.93;;;2.53;;
74245;SDS011;62601;51.044;13.788;2023-07-13T08:36:48;4.33;;;2.03;;
74245;SDS011;62601;51.044;13.788;2023-07-13T08:39:08;2.60;;;2.37;;
74245;SDS011;62601;51.044;13.788;2023-07-13T08:41:28;3.40;;;2.30;;
74245;SDS011;62601;51.044;13.788;2023-07-13T08:43:50;2.90;;;2.13;;
74245;SDS011;62601;51.044;13.788;2023-07-13T08:46:13;4.43;;;2.40;;
74245;SDS011;62601;51.044;13.788;2023-07-13T08:48:41;4.33;;;3.17;;
74245;SDS011;62601;51.044;13.788;2023-07-13T08:51:09;2.80;;;2.50;;
74245;SDS011;62601;51.044;13.788;2023-07-13T08:53:34;5.27;;;2.37;;
74245;SDS011;62601;51.044;13.788;2023-07-13T08:55:57;7.73;;;2.77;;
74245;SDS011;62601;51.044;13.788;2023-07-13T08:58:17;3.60;;;3.30;;
74245;SDS011;62601;51.044;13.788;2023-07-13T09:03:01;3.60;;;2.57;;
74245;SDS011;62601;51.044;13.788;2023-07-13T09:05:29;4.73;;;2.33;;
74245;SDS011;62601;51.044;13.788;2023-07-13T09:10:36;2.93;;;2.30;;
74245;SDS011;62601;51.044;13.788;2023-07-13T09:13:07;3.90;;;2.33;;
74245;SDS011;62601;51.044;13.788;2023-07-13T09:15:34;2.20;;;2.10;;
74245;SDS011;62601;51.044;13.788;2023-07-13T09:17:55;6.00;;;2.13;;
74245;SDS011;62601;51.044;13.788;2023-07-13T09:20:22;4.00;;;2.00;;
74245;SDS011;62601;51.044;13.788;2023-07-13T09:22:43;2.67;;;2.00;;
74245;SDS011;62601;51.044;13.788;2023-07-13T09:25:20;5.80;;;2.17;;
74245;SDS011;62601;51.044;13.788;2023-07-13T09:27:42;3.07;;;2.10;;
74245;SDS011;62601;51.044;13.788;2023-07-13T09:32:29;3.77;;;2.27;;
74245;SDS011;62601;51.044;13.788;2023-07-13T09:34:51;4.73;;;2.70;;
74245;SDS011;62601;51.044;13.788;2023-07-13T09:37:11;3.73;;;2.70;;
74245;SDS011;62601;51.044;13.788;2023-07-13T09:39:39;3.07;;;2.77;;
74245;SDS011;62601;51.044;13.788;2023-07-13T09:42:13;3.70;;;2.40;;
74245;SDS011;62601;51.044;13.788;2023-07-13T09:44:35;2.17;;;2.07;;
74245;SDS011;62601;51.044;13.788;2023-07-13T09:46:56;2.40;;;2.20;;
74245;SDS011;62601;51.044;13.788;2023-07-13T09:49:16;2.70;;;2.17;;
74245;SDS011;62601;51.044;13.788;2023-07-13T09:51:37;4.27;;;3.73;;
74245;SDS011;62601;51.044;13.788;2023-07-13T09:53:57;2.60;;;2.40;;
74245;SDS011;62601;51.044;13.788;2023-07-13T09:56:24;3.50;;;2.60;;
74245;SDS011;62601;51.044;13.788;2023-07-13T09:58:45;3.00;;;1.93;;
74245;SDS011;62601;51.044;13.788;2023-07-13T10:01:06;2.47;;;2.07;;
74245;SDS011;62601;51.044;13.788;2023-07-13T10:03:27;3.20;;;2.20;;
74245;SDS011;62601;51.044;13.788;2023-07-13T10:05:48;4.60;;;2.60;;
74245;SDS011;62601;51.044;13.788;2023-07-13T10:08:23;2.43;;;2.20;;
74245;SDS011;62601;51.044;13.788;2023-07-13T10:10:43;3.10;;;2.07;;
74245;SDS011;62601;51.044;13.788;2023-07-13T10:13:03;3.17;;;2.97;;
74245;SDS011;62601;51.044;13.788;2023-07-13T10:15:24;2.80;;;2.10;;
74245;SDS011;62601;51.044;13.788;2023-07-13T10:17:45;2.40;;;2.20;;
74245;SDS011;62601;51.044;13.788;2023-07-13T10:20:05;2.00;;;1.90;;
74245;SDS011;62601;51.044;13.788;2023-07-13T10:25:18;4.50;;;1.77;;
74245;SDS011;62601;51.044;13.788;2023-07-13T10:27:38;2.47;;;1.87;;
74245;SDS011;62601;51.044;13.788;2023-07-13T10:30:02;3.00;;;1.80;;
74245;SDS011;62601;51.044;13.788;2023-07-13T10:32:24;8.20;;;3.50;;
74245;SDS011;62601;51.044;13.788;2023-07-13T10:34:45;2.20;;;2.00;;
74245;SDS011;62601;51.044;13.788;2023-07-13T10:37:07;3.43;;;1.90;;
74245;SDS011;62601;51.044;13.788;2023-07-13T10:39:34;5.90;;;2.23;;
74245;SDS011;62601;51.044;13.788;2023-07-13T10:42:05;2.57;;;2.37;;
74245;SDS011;62601;51.044;13.788;2023-07-13T10:44:28;3.53;;;2.53;;
74245;SDS011;62601;51.044;13.788;2023-07-13T10:46:48;3.40;;;2.00;;
74245;SDS011;62601;51.044;13.788;2023-07-13T10:49:09;10.97;;;3.03;;
74245;SDS011;62601;51.044;13.788;2023-07-13T10:51:30;2.40;;;2.20;;
74245;SDS011;62601;51.044;13.788;2023-07-13T10:54:10;3.03;;;2.47;;
74245;SDS011;62601;51.044;13.788;2023-07-13T10:56:30;2.23;;;2.13;;
74245;SDS011;62601;51.044;13.788;2023-07-13T10:59:01;2.57;;;2.37;;
74245;SDS011;62601;51.044;13.788;2023-07-13T11:01:21;2.90;;;2.60;;
74245;SDS011;62601;51.044;13.788;2023-07-13T11:06:05;2.30;;;2.00;;
74245;SDS011;62601;51.044;13.788;2023-07-13T11:08:32;4.30;;;1.90;;
74245;SDS011;62601;51.044;13.788;2023-07-13T11:10:54;2.50;;;2.20;;
74245;SDS011;62601;51.044;13.788;2023-07-13T11:15:53;2.57;;;1.70;;
74245;SDS011;62601;51.044;13.788;2023-07-13T11:18:23;1.53;;;1.37;;
74245;SDS011;62601;51.044;13.788;2023-07-13T11:20:43;1.93;;;1.57;;
74245;SDS011;62601;51.044;13.788;2023-07-13T11:25:33;1.97;;;1.70;;
74245;SDS011;62601;51.044;13.788;2023-07-13T11:32:50;2.60;;;1.83;;
74245;SDS011;62601;51.044;13.788;2023-07-13T11:35:14;2.43;;;2.10;;
74245;SDS011;62601;51.044;13.788;2023-07-13T11:37:37;2.73;;;2.30;;
74245;SDS011;62601;51.044;13.788;2023-07-13T11:39:57;2.50;;;2.20;;
74245;SDS011;62601;51.044;13.788;2023-07-13T11:42:18;4.53;;;2.30;;
74245;SDS011;62601;51.044;13.788;2023-07-13T11:44:45;2.53;;;1.97;;
74245;SDS011;62601;51.044;13.788;2023-07-13T11:47:10;2.00;;;1.80;;
74245;SDS011;62601;51.044;13.788;2023-07-13T11:49:31;2.17;;;1.97;;
74245;SDS011;62601;51.044;13.788;2023-07-13T11:51:51;2.20;;;2.10;;
74245;SDS011;62601;51.044;13.788;2023-07-13T11:54:19;3.20;;;2.07;;
74245;SDS011;62601;51.044;13.788;2023-07-13T11:56:41;8.47;;;2.40;;
74245;SDS011;62601;51.044;13.788;2023-07-13T11:59:06;2.20;;;2.00;;
74245;SDS011;62601;51.044;13.788;2023-07-13T12:01:27;2.40;;;2.10;;
74245;SDS011;62601;51.044;13.788;2023-07-13T12:03:49;4.00;;;1.80;;
74245;SDS011;62601;51.044;13.788;2023-07-13T12:06:20;2.73;;;1.90;;
74245;SDS011;62601;51.044;13.788;2023-07-13T12:08:41;2.80;;;2.10;;
74245;SDS011;62601;51.044;13.788;2023-07-13T12:11:05;3.27;;;2.13;;
74245;SDS011;62601;51.044;13.788;2023-07-13T12:13:26;1.80;;;1.70;;
74245;SDS011;62601;51.044;13.788;2023-07-13T12:15:46;2.80;;;2.00;;
74245;SDS011;62601;51.044;13.788;2023-07-13T12:18:13;2.90;;;2.20;;
74245;SDS011;62601;51.044;13.788;2023-07-13T12:20:35;4.37;;;2.03;;
74245;SDS011;62601;51.044;13.788;2023-07-13T12:22:56;3.97;;;1.80;;
74245;SDS011;62601;51.044;13.788;2023-07-13T12:25:17;3.60;;;1.80;;
74245;SDS011;62601;51.044;13.788;2023-07-13T12:27:37;6.20;;;2.10;;
74245;SDS011;62601;51.044;13.788;2023-07-13T12:29:58;2.30;;;2.10;;
74245;SDS011;62601;51.044;13.788;2023-07-13T12:32:19;3.90;;;2.07;;
74245;SDS011;62601;51.044;13.788;2023-07-13T12:34:50;3.13;;;2.30;;
74245;SDS011;62601;51.044;13.788;2023-07-13T12:37:11;3.13;;;2.20;;
74245;SDS011;62601;51.044;13.788;2023-07-13T12:39:33;2.80;;;1.70;;
74245;SDS011;62601;51.044;13.788;2023-07-13T12:41:54;2.20;;;2.00;;
74245;SDS011;62601;51.044;13.788;2023-07-13T12:44:29;3.30;;;2.07;;
74245;SDS011;62601;51.044;13.788;2023-07-13T12:46:51;2.70;;;2.50;;
74245;SDS011;62601;51.044;13.788;2023-07-13T12:49:12;2.80;;;2.03;;
74245;SDS011;62601;51.044;13.788;2023-07-13T12:51:33;4.20;;;2.40;;
74245;SDS011;62601;51.044;13.788;2023-07-13T12:53:58;3.03;;;1.80;;
74245;SDS011;62601;51.044;13.788;2023-07-13T12:56:22;2.00;;;1.90;;
74245;SDS011;62601;51.044;13.788;2023-07-13T12:58:43;2.77;;;2.10;;
74245;SDS011;62601;51.044;13.788;2023-07-13T13:01:03;3.67;;;2.20;;
74245;SDS011;62601;51.044;13.788;2023-07-13T13:05:56;3.03;;;1.80;;
74245;SDS011;62601;51.044;13.788;2023-07-13T13:08:16;3.70;;;2.43;;
74245;SDS011;62601;51.044;13.788;2023-07-13T13:10:36;3.07;;;2.00;;
74245;SDS011;62601;51.044;13.788;2023-07-13T13:12:57;2.90;;;1.80;;
74245;SDS011;62601;51.044;13.788;2023-07-13T13:15:17;2.93;;;2.07;;
74245;SDS011;62601;51.044;13.788;2023-07-13T13:17:37;3.57;;;2.20;;
74245;SDS011;62601;51.044;13.788;2023-07-13T13:19:57;2.07;;;1.87;;
74245;SDS011;62601;51.044;13.788;2023-07-13T13:22:17;1.80;;;1.70;;
74245;SDS011;62601;51.044;13.788;2023-07-13T13:24:38;3.33;;;2.13;;
74245;SDS011;62601;51.044;13.788;2023-07-13T13:26:58;3.97;;;2.57;;
74245;SDS011;62601;51.044;13.788;2023-07-13T13:29:19;4.23;;;2.00;;
74245;SDS011;62601;51.044;13.788;2023-07-13T13:31:39;2.07;;;1.97;;
74245;SDS011;62601;51.044;13.788;2023-07-13T13:33:59;2.73;;;1.97;;
74245;SDS011;62601;51.044;13.788;2023-07-13T13:36:20;1.90;;;1.77;;
74245;SDS011;62601;51.044;13.788;2023-07-13T13:38:41;2.50;;;1.80;;
74245;SDS011;62601;51.044;13.788;2023-07-13T13:41:01;2.50;;;1.90;;
74245;SDS011;62601;51.044;13.788;2023-07-13T13:43:22;3.23;;;2.67;;
74245;SDS011;62601;51.044;13.788;2023-07-13T13:45:43;1.80;;;1.70;;
74245;SDS011;62601;51.044;13.788;2023-07-13T13:48:03;1.80;;;1.60;;
74245;SDS011;62601;51.044;13.788;2023-07-13T13:50:24;2.27;;;2.10;;
74245;SDS011;62601;51.044;13.788;2023-07-13T13:52:44;2.10;;;1.60;;
74245;SDS011;62601;51.044;13.788;2023-07-13T13:55:10;2.50;;;1.60;;
74245;SDS011;62601;51.044;13.788;2023-07-13T13:57:31;5.53;;;1.93;;
74245;SDS011;62601;51.044;13.788;2023-07-13T13:59:51;2.83;;;1.70;;
74245;SDS011;62601;51.044;13.788;2023-07-13T14:02:22;2.50;;;2.10;;
74245;SDS011;62601;51.044;13.788;2023-07-13T14:04:43;8.83;;;1.90;;
74245;SDS011;62601;51.044;13.788;2023-07-13T14:07:03;2.17;;;1.63;;
74245;SDS011;62601;51.044;13.788;2023-07-13T14:09:23;2.80;;;1.80;;
74245;SDS011;62601;51.044;13.788;2023-07-13T14:11:43;2.00;;;1.60;;
74245;SDS011;62601;51.044;13.788;2023-07-13T14:14:04;2.03;;;1.83;;
74245;SDS011;62601;51.044;13.788;2023-07-13T14:16:29;2.10;;;1.90;;
74245;SDS011;62601;51.044;13.788;2023-07-13T14:18:50;1.50;;;1.40;;
74245;SDS011;62601;51.044;13.788;2023-07-13T14:21:12;1.97;;;1.50;;
74245;SDS011;62601;51.044;13.788;2023-07-13T14:23:32;1.93;;;1.70;;